Algoma Mariner — CFN5517 — position and weather

sailwx.info

Track history (hours):
 
Tides and Currents Weather Stations Pressure Air Temp Water Temp Dewpoint Dewpoint Depression Visibility Wind Speed Wind Dir Waves Ship Positions

Algoma Mariner

Last reported at 2017-Sep-19 01:00 UTC. Time now 2017-Sep-20 02:05 UTC.
Position N 48°00' W 065°06'.

Length 225 m; draft 8.1 m.

Type: Cargo ship. MMSI: 316014050.

Wind from 040 at 10 knots

Barometer 1022.0 mb
Air temperature 15.0 ° C
Visibility: greater than 27.0 NM

Date/timePositionNaut miles runAvg speedWind from/ knotsBaromVisibWave heightAir tempDewpointWater temp
2017-Sep-19 01:00N 48°00' W 065°06'377 7.7 040 / 101022.027.0 15.0
2017-Sep-16 23:50N 45°30' W 073°31'1 1.6
2017-Sep-16 23:29N 45°29' W 073°31'3 4.9
2017-Sep-16 22:58N 45°27' W 073°30'7 2.4
2017-Sep-16 20:03N 45°25' W 073°39'0 6.1
2017-Sep-16 20:00N 45°25' W 073°40'3 6.4
2017-Sep-16 19:30N 45°24' W 073°44'511.0
2017-Sep-16 19:00N 45°21' W 073°51'4 7.7
2017-Sep-16 18:31N 45°19' W 073°55'0 0.6
2017-Sep-16 18:01N 45°19' W 073°55'1 1.2
2017-Sep-16 17:31N 45°18' W 073°56'1 1.4
2017-Sep-16 17:00N 45°18' W 073°56'2 3.9
2017-Sep-16 16:30N 45°16' W 073°57'4 8.6
2017-Sep-16 15:59N 45°13' W 074°03'4 9.1
2017-Sep-16 15:30N 45°14' W 074°09'710.9
2017-Sep-16 14:55N 45°12' W 074°18'712.1
2017-Sep-16 14:22N 45°08' W 074°25'910.0
2017-Sep-16 13:26N 45°03' W 074°35'  
2017-Sep-14 03:00N 42°54' W 082°24'15612.3 190 / 10985.010.8 22.0
2017-Sep-13 14:19N 45°26' W 083°18'412.9
2017-Sep-13 14:00N 45°29' W 083°21'712.9
2017-Sep-13 13:30N 45°34' W 083°27'612.9
2017-Sep-13 13:00N 45°39' W 083°33'612.9
2017-Sep-13 12:30N 45°44' W 083°38'612.8
2017-Sep-13 12:00N 45°49' W 083°44'712.8
2017-Sep-13 11:26N 45°54' W 083°51'511.3
2017-Sep-13 11:00N 45°59' W 083°53'510.5
2017-Sep-13 10:30N 46°03' W 083°58'5 9.0
2017-Sep-13 10:00N 46°07' W 084°01'611.0
2017-Sep-13 09:29N 46°11' W 084°07'4 8.4
2017-Sep-13 08:59N 46°14' W 084°11'3 6.8
2017-Sep-13 08:30N 46°17' W 084°13'4 7.6
2017-Sep-13 08:00N 46°21' W 084°13'4 8.4
2017-Sep-13 07:30N 46°25' W 084°15'6 8.0
2017-Sep-13 06:46N 46°30' W 084°20'1 2.5
2017-Sep-13 06:19N 46°30' W 084°21'0 0.1
2017-Sep-13 06:00N 46°30' W 084°21'0 0.5
2017-Sep-13 05:07N 46°30' W 084°22'0 1.4
2017-Sep-13 04:55N 46°30' W 084°22'1 2.7
2017-Sep-13 04:27N 46°30' W 084°24'3 5.5
2017-Sep-13 04:00N 46°29' W 084°27'6 6.2
2017-Sep-13 03:00N 46°30' W 084°36'1016.5 170 / 7996.010.8 18.0
2017-Sep-13 02:23N 46°37' W 084°46'512.9
2017-Sep-13 01:59N 46°42' W 084°50'712.8
2017-Sep-13 01:28N 46°47' W 084°55'  
2017-Sep-10 19:11N 45°39' W 083°36'513.3
2017-Sep-10 18:51N 45°35' W 083°32'513.2
2017-Sep-10 18:30N 45°31' W 083°28'713.2
2017-Sep-10 18:00N 45°26' W 083°23'713.1
2017-Sep-10 17:30N 45°20' W 083°18'222 5.6
2017-Sep-09 02:00N 43°06' W 079°12'   010 / 81005.0 15.0
Track history (hours):
 
Tides and Currents Weather Stations Pressure Air Temp Water Temp Dewpoint Dewpoint Depression Visibility Wind Speed Wind Dir Waves Ship Positions

Algoma Mariner

Last reported at 2017-Sep-19 01:00 UTC. Time now 2017-Sep-20 02:05 UTC.
Position N 48°00' W 065°06'.

Length 225 m; draft 8.1 m.

Type: Cargo ship. MMSI: 316014050.

Wind from 040 at 10 knots

Barometer 1022.0 mb
Air temperature 15.0 ° C
Visibility: greater than 27.0 NM

Date/timePositionNaut miles runAvg speedWind from/ knotsBaromVisibWave heightAir tempDewpointWater temp
2017-Sep-19 01:00N 48°00' W 065°06'377 7.7 040 / 101022.027.0 15.0
2017-Sep-16 23:50N 45°30' W 073°31'1 1.6
2017-Sep-16 23:29N 45°29' W 073°31'3 4.9
2017-Sep-16 22:58N 45°27' W 073°30'7 2.4
2017-Sep-16 20:03N 45°25' W 073°39'0 6.1
2017-Sep-16 20:00N 45°25' W 073°40'3 6.4
2017-Sep-16 19:30N 45°24' W 073°44'511.0
2017-Sep-16 19:00N 45°21' W 073°51'4 7.7
2017-Sep-16 18:31N 45°19' W 073°55'0 0.6
2017-Sep-16 18:01N 45°19' W 073°55'1 1.2
2017-Sep-16 17:31N 45°18' W 073°56'1 1.4
2017-Sep-16 17:00N 45°18' W 073°56'2 3.9
2017-Sep-16 16:30N 45°16' W 073°57'4 8.6
2017-Sep-16 15:59N 45°13' W 074°03'4 9.1
2017-Sep-16 15:30N 45°14' W 074°09'710.9
2017-Sep-16 14:55N 45°12' W 074°18'712.1
2017-Sep-16 14:22N 45°08' W 074°25'910.0
2017-Sep-16 13:26N 45°03' W 074°35'  
2017-Sep-14 03:00N 42°54' W 082°24'15612.3 190 / 10985.010.8 22.0
2017-Sep-13 14:19N 45°26' W 083°18'412.9
2017-Sep-13 14:00N 45°29' W 083°21'712.9
2017-Sep-13 13:30N 45°34' W 083°27'612.9
2017-Sep-13 13:00N 45°39' W 083°33'612.9
2017-Sep-13 12:30N 45°44' W 083°38'612.8
2017-Sep-13 12:00N 45°49' W 083°44'712.8
2017-Sep-13 11:26N 45°54' W 083°51'511.3
2017-Sep-13 11:00N 45°59' W 083°53'510.5
2017-Sep-13 10:30N 46°03' W 083°58'5 9.0
2017-Sep-13 10:00N 46°07' W 084°01'611.0
2017-Sep-13 09:29N 46°11' W 084°07'4 8.4
2017-Sep-13 08:59N 46°14' W 084°11'3 6.8
2017-Sep-13 08:30N 46°17' W 084°13'4 7.6
2017-Sep-13 08:00N 46°21' W 084°13'4 8.4
2017-Sep-13 07:30N 46°25' W 084°15'6 8.0
2017-Sep-13 06:46N 46°30' W 084°20'1 2.5
2017-Sep-13 06:19N 46°30' W 084°21'0 0.1
2017-Sep-13 06:00N 46°30' W 084°21'0 0.5
2017-Sep-13 05:07N 46°30' W 084°22'0 1.4
2017-Sep-13 04:55N 46°30' W 084°22'1 2.7
2017-Sep-13 04:27N 46°30' W 084°24'3 5.5
2017-Sep-13 04:00N 46°29' W 084°27'6 6.2
2017-Sep-13 03:00N 46°30' W 084°36'1016.5 170 / 7996.010.8 18.0
2017-Sep-13 02:23N 46°37' W 084°46'512.9
2017-Sep-13 01:59N 46°42' W 084°50'712.8
2017-Sep-13 01:28N 46°47' W 084°55'  
2017-Sep-10 19:11N 45°39' W 083°36'513.3
2017-Sep-10 18:51N 45°35' W 083°32'513.2
2017-Sep-10 18:30N 45°31' W 083°28'713.2
2017-Sep-10 18:00N 45°26' W 083°23'713.1
2017-Sep-10 17:30N 45°20' W 083°18'222 5.6
2017-Sep-09 02:00N 43°06' W 079°12'   010 / 81005.0 15.0

Dump ship's entire track history